createdAt,value
2023-04-27T00:01:46.414Z,5.56
2023-04-27T00:04:14.435Z,5.45
2023-04-27T00:06:41.127Z,5.36
2023-04-27T00:09:07.643Z,5.50
2023-04-27T00:11:34.325Z,5.51
2023-04-27T00:14:00.732Z,5.38
2023-04-27T00:16:27.153Z,5.38
2023-04-27T00:18:54.006Z,5.22
2023-04-27T00:21:20.545Z,5.15
2023-04-27T00:23:46.975Z,5.13
2023-04-27T00:26:13.408Z,4.88
2023-04-27T00:28:39.805Z,4.91
2023-04-27T00:31:06.383Z,4.92
2023-04-27T00:33:32.765Z,4.71
2023-04-27T00:36:02.593Z,4.78
2023-04-27T00:38:29.691Z,4.98
2023-04-27T00:41:07.056Z,4.90
2023-04-27T00:43:41.189Z,4.90
2023-04-27T00:46:08.278Z,4.95
2023-04-27T00:48:35.512Z,4.83
2023-04-27T00:51:01.908Z,4.78
2023-04-27T00:53:28.404Z,4.84
2023-04-27T00:55:56.369Z,4.72
2023-04-27T00:58:23.018Z,4.40
2023-04-27T01:00:49.549Z,4.49
2023-04-27T01:03:16.051Z,4.44
2023-04-27T01:05:42.957Z,4.47
2023-04-27T01:08:10.739Z,4.45
2023-04-27T01:10:37.602Z,4.37
2023-04-27T01:13:04.002Z,4.34
2023-04-27T01:15:30.525Z,4.44
2023-04-27T01:18:01.246Z,4.52
2023-04-27T01:20:32.362Z,4.38
2023-04-27T01:22:59.430Z,4.51
2023-04-27T01:25:26.293Z,4.58
2023-04-27T01:27:54.126Z,4.60
2023-04-27T01:30:22.373Z,4.81
2023-04-27T01:32:49.928Z,4.85
2023-04-27T01:35:16.648Z,4.90
2023-04-27T01:37:43.119Z,4.94
2023-04-27T01:40:09.824Z,5.04
2023-04-27T01:42:36.196Z,4.73
2023-04-27T01:45:02.831Z,4.87
2023-04-27T01:47:29.233Z,4.91
2023-04-27T01:49:55.758Z,4.88
2023-04-27T01:52:22.112Z,4.76
2023-04-27T01:54:48.543Z,5.01
2023-04-27T01:57:14.925Z,4.95
2023-04-27T01:59:41.371Z,5.05
2023-04-27T02:02:07.880Z,5.07
2023-04-27T02:04:36.568Z,5.01
2023-04-27T02:07:03.451Z,5.09
2023-04-27T02:09:29.830Z,4.89
2023-04-27T02:11:56.297Z,4.94
2023-04-27T02:14:22.789Z,4.80
2023-04-27T02:16:49.186Z,4.74
2023-04-27T02:19:15.848Z,4.79
2023-04-27T02:21:42.635Z,4.94
2023-04-27T02:24:09.637Z,4.90
2023-04-27T02:26:36.123Z,4.95
2023-04-27T02:29:03.659Z,4.89
2023-04-27T02:31:30.961Z,4.67
2023-04-27T02:33:57.351Z,4.74
2023-04-27T02:36:23.918Z,4.45
2023-04-27T02:38:50.341Z,4.23
2023-04-27T02:41:16.721Z,4.30
2023-04-27T02:43:43.115Z,4.43
2023-04-27T02:46:09.531Z,4.44
2023-04-27T02:48:35.993Z,4.42
2023-04-27T02:51:05.684Z,4.48
2023-04-27T02:53:32.075Z,4.24
2023-04-27T02:55:59.139Z,4.34
2023-04-27T02:58:25.989Z,4.07
2023-04-27T03:00:55.985Z,4.02
2023-04-27T03:03:23.899Z,3.97
2023-04-27T03:05:50.477Z,4.13
2023-04-27T03:08:16.859Z,4.03
2023-04-27T03:10:43.244Z,3.98
2023-04-27T03:13:09.687Z,3.97
2023-04-27T03:15:36.110Z,4.05
2023-04-27T03:18:02.569Z,4.13
2023-04-27T03:20:29.046Z,4.15
2023-04-27T03:22:55.439Z,4.16
2023-04-27T03:25:22.281Z,4.12
2023-04-27T03:27:48.652Z,3.98
2023-04-27T03:30:15.252Z,4.01
2023-04-27T03:32:41.691Z,3.87
2023-04-27T03:35:09.038Z,3.55
2023-04-27T03:37:35.428Z,3.33
2023-04-27T03:40:01.862Z,3.25
2023-04-27T03:42:29.399Z,3.15
2023-04-27T03:44:55.902Z,3.39
2023-04-27T03:47:22.702Z,3.54
2023-04-27T03:49:49.133Z,3.50
2023-04-27T03:52:15.614Z,3.56
2023-04-27T03:54:42.004Z,3.37
2023-04-27T03:57:09.017Z,3.33
2023-04-27T03:59:35.464Z,3.44
2023-04-27T04:02:03.882Z,3.37
2023-04-27T04:04:31.169Z,3.43
2023-04-27T04:06:57.747Z,3.60
2023-04-27T04:09:24.219Z,3.57
2023-04-27T04:11:52.269Z,3.45
2023-04-27T04:14:18.898Z,3.44
2023-04-27T04:16:45.277Z,3.33
2023-04-27T04:19:11.855Z,2.94
2023-04-27T04:21:38.364Z,2.91
2023-04-27T04:24:04.877Z,2.87
2023-04-27T04:26:31.323Z,2.95
2023-04-27T04:28:57.770Z,3.08
2023-04-27T04:31:24.393Z,3.24
2023-04-27T04:33:51.747Z,3.57
2023-04-27T04:36:18.518Z,3.49
2023-04-27T04:38:44.924Z,3.60
2023-04-27T04:41:11.343Z,3.64
2023-04-27T04:43:37.721Z,3.78
2023-04-27T04:46:04.121Z,3.64
2023-04-27T04:48:30.523Z,3.35
2023-04-27T04:50:57.201Z,3.41
2023-04-27T04:53:23.627Z,3.48
2023-04-27T04:55:49.988Z,3.49
2023-04-27T04:58:16.342Z,3.48
2023-04-27T05:00:43.026Z,3.53
2023-04-27T05:03:09.605Z,3.39
2023-04-27T05:05:36.130Z,3.32
2023-04-27T05:08:02.677Z,3.52
2023-04-27T05:10:29.262Z,3.39
2023-04-27T05:12:55.976Z,3.33
2023-04-27T05:15:22.389Z,3.47
2023-04-27T05:17:48.817Z,3.61
2023-04-27T05:20:16.122Z,3.62
2023-04-27T05:22:42.580Z,3.78
2023-04-27T05:25:09.940Z,3.85
2023-04-27T05:27:36.433Z,3.94
2023-04-27T05:30:03.273Z,3.85
2023-04-27T05:32:29.762Z,3.97
2023-04-27T05:34:56.254Z,4.20
2023-04-27T05:37:22.767Z,4.17
2023-04-27T05:39:49.160Z,4.24
2023-04-27T05:42:15.521Z,4.19
2023-04-27T05:44:41.987Z,4.13
2023-04-27T05:47:08.379Z,4.23
2023-04-27T05:49:34.757Z,4.22
2023-04-27T05:52:01.671Z,4.33
2023-04-27T05:54:28.104Z,4.45
2023-04-27T05:56:54.524Z,4.60
2023-04-27T05:59:21.760Z,4.66
2023-04-27T06:01:48.179Z,4.92
2023-04-27T06:04:14.870Z,5.07
2023-04-27T06:06:41.654Z,4.98
2023-04-27T06:09:08.242Z,5.20
2023-04-27T06:11:34.706Z,5.25
2023-04-27T06:14:01.078Z,5.42
2023-04-27T06:16:27.527Z,5.71
2023-04-27T06:18:53.961Z,5.76
2023-04-27T06:21:20.339Z,5.92
2023-04-27T06:23:46.699Z,6.03
2023-04-27T06:26:13.077Z,5.93
2023-04-27T06:28:39.436Z,6.07
2023-04-27T06:31:06.288Z,6.23
2023-04-27T06:33:33.370Z,6.42
2023-04-27T06:36:01.689Z,6.46
2023-04-27T06:38:28.370Z,6.49
2023-04-27T06:40:54.989Z,6.38
2023-04-27T06:43:21.634Z,6.19
2023-04-27T06:45:48.258Z,6.49
2023-04-27T06:48:14.820Z,6.31
2023-04-27T06:50:41.248Z,6.57
2023-04-27T06:53:08.196Z,6.26
2023-04-27T06:55:34.807Z,6.43
2023-04-27T06:58:03.190Z,6.85
2023-04-27T07:00:29.575Z,6.44
2023-04-27T07:02:56.212Z,6.70
2023-04-27T07:05:22.825Z,6.86
2023-04-27T07:07:49.206Z,6.78
2023-04-27T07:10:15.778Z,6.89
2023-04-27T07:12:42.286Z,7.24
2023-04-27T07:15:09.141Z,7.44
2023-04-27T07:17:35.698Z,7.60
2023-04-27T07:20:03.820Z,7.60
2023-04-27T07:22:30.304Z,7.81
2023-04-27T07:24:56.704Z,8.06
2023-04-27T07:27:23.244Z,8.01
2023-04-27T07:29:49.624Z,7.97
2023-04-27T07:32:16.240Z,8.10
2023-04-27T07:34:52.690Z,8.38
2023-04-27T07:37:20.360Z,7.86
2023-04-27T07:39:47.284Z,8.26
2023-04-27T07:42:13.696Z,8.45
2023-04-27T07:44:40.826Z,8.57
2023-04-27T07:47:07.303Z,8.24
2023-04-27T07:49:34.938Z,7.96
2023-04-27T07:52:01.770Z,8.34
2023-04-27T07:54:28.186Z,8.22
2023-04-27T07:56:54.798Z,8.36
2023-04-27T07:59:21.317Z,8.39
2023-04-27T08:01:47.918Z,8.84
2023-04-27T08:04:16.144Z,8.73
2023-04-27T08:06:43.437Z,8.64
2023-04-27T08:09:10.079Z,8.53
2023-04-27T08:11:36.581Z,8.62
2023-04-27T08:14:02.977Z,8.77
2023-04-27T08:16:29.427Z,8.88
2023-04-27T08:18:56.256Z,8.93
2023-04-27T08:21:23.299Z,9.21
2023-04-27T08:23:49.810Z,9.23
2023-04-27T08:26:16.488Z,9.13
2023-04-27T08:28:42.860Z,9.65
2023-04-27T08:31:09.281Z,9.75
2023-04-27T08:33:35.710Z,9.74
2023-04-27T08:36:02.259Z,9.56
2023-04-27T08:38:28.647Z,9.86
2023-04-27T08:40:55.198Z,10.04
2023-04-27T08:43:21.640Z,10.53
2023-04-27T08:45:50.107Z,9.87
2023-04-27T08:48:16.555Z,10.40
2023-04-27T08:50:44.796Z,10.72
2023-04-27T08:53:22.012Z,10.76
2023-04-27T08:55:51.281Z,10.50
2023-04-27T08:58:17.734Z,10.56
2023-04-27T09:00:45.781Z,10.38
2023-04-27T09:03:22.185Z,10.47
2023-04-27T09:06:00.692Z,10.76
2023-04-27T09:08:30.040Z,10.92
2023-04-27T09:10:56.450Z,11.32
2023-04-27T09:13:22.862Z,10.71
2023-04-27T09:15:51.710Z,11.07
2023-04-27T09:18:23.110Z,10.98
2023-04-27T09:20:51.360Z,10.99
2023-04-27T09:23:29.744Z,11.15
2023-04-27T09:25:57.288Z,11.32
2023-04-27T09:28:27.432Z,11.40
2023-04-27T09:30:58.704Z,11.69
2023-04-27T09:33:25.890Z,11.20
2023-04-27T09:35:52.810Z,10.89
2023-04-27T09:38:20.789Z,10.82
2023-04-27T09:40:47.869Z,10.89
2023-04-27T09:43:14.731Z,11.07
2023-04-27T09:45:41.554Z,11.46
2023-04-27T09:48:08.731Z,11.74
2023-04-27T09:50:39.763Z,11.98
2023-04-27T09:53:08.328Z,12.12
2023-04-27T09:55:39.488Z,12.32
2023-04-27T09:58:43.907Z,12.39
2023-04-27T10:01:19.324Z,12.05
2023-04-27T10:04:13.330Z,12.03
2023-04-27T10:06:52.590Z,12.64
2023-04-27T10:09:25.505Z,12.85
2023-04-27T10:11:53.882Z,12.34
2023-04-27T10:14:22.831Z,12.67
2023-04-27T10:16:53.142Z,12.99
2023-04-27T10:19:21.147Z,13.08
2023-04-27T10:21:52.613Z,13.73
2023-04-27T10:24:19.041Z,13.37
2023-04-27T10:26:48.525Z,13.32
2023-04-27T10:29:16.457Z,13.78
2023-04-27T10:31:48.448Z,13.68
2023-04-27T10:34:21.172Z,13.95
2023-04-27T10:36:47.779Z,13.05
2023-04-27T10:39:18.611Z,13.96
2023-04-27T10:41:56.049Z,13.65
2023-04-27T10:44:28.597Z,13.48
2023-04-27T10:46:57.061Z,13.84
2023-04-27T10:49:23.993Z,13.38
2023-04-27T10:51:51.063Z,14.14
2023-04-27T10:54:17.563Z,13.83
2023-04-27T10:56:44.348Z,13.68
2023-04-27T10:59:11.048Z,14.83
2023-04-27T11:01:37.871Z,13.80
2023-04-27T11:04:05.296Z,13.68
2023-04-27T11:06:34.855Z,13.98
2023-04-27T11:09:01.529Z,14.56
2023-04-27T11:11:28.030Z,14.71
2023-04-27T11:13:55.704Z,14.95
2023-04-27T11:16:22.949Z,15.03
2023-04-27T11:18:49.357Z,14.21
2023-04-27T11:21:18.051Z,15.14
2023-04-27T11:23:44.439Z,15.74
2023-04-27T11:26:11.824Z,15.59
2023-04-27T11:28:38.539Z,16.03
2023-04-27T11:31:07.244Z,16.22
2023-04-27T11:33:35.673Z,15.74
2023-04-27T11:36:02.225Z,15.85
2023-04-27T11:38:33.781Z,15.81
2023-04-27T11:41:05.670Z,15.74
2023-04-27T11:43:32.643Z,15.45
2023-04-27T11:46:03.341Z,15.40
2023-04-27T11:48:29.758Z,15.65
2023-04-27T11:50:59.196Z,15.77
2023-04-27T11:53:30.922Z,15.77
2023-04-27T11:56:00.943Z,16.03
2023-04-27T11:58:29.229Z,16.60
2023-04-27T12:00:58.836Z,16.08
2023-04-27T12:03:26.270Z,17.48
2023-04-27T12:05:53.289Z,17.49
2023-04-27T12:08:20.383Z,18.02
2023-04-27T12:10:47.165Z,18.44
2023-04-27T12:13:14.277Z,18.52
2023-04-27T12:15:41.105Z,17.42
2023-04-27T12:18:07.540Z,16.40
2023-04-27T12:20:34.727Z,16.63
2023-04-27T12:23:01.223Z,18.50
2023-04-27T12:25:27.741Z,19.48
2023-04-27T12:27:54.182Z,19.31
2023-04-27T12:30:22.549Z,17.40
2023-04-27T12:32:48.940Z,17.44
2023-04-27T12:35:15.445Z,17.12
2023-04-27T12:37:42.316Z,17.28
2023-04-27T12:40:09.376Z,18.63
2023-04-27T12:42:35.930Z,17.95
2023-04-27T12:45:02.322Z,17.67
2023-04-27T12:47:49.821Z,17.81
2023-04-27T12:50:15.747Z,18.71
2023-04-27T12:52:42.149Z,18.44
2023-04-27T12:55:18.034Z,18.81
2023-04-27T12:57:51.460Z,20.06
2023-04-27T13:00:18.102Z,19.23
2023-04-27T13:02:46.103Z,18.86
2023-04-27T13:05:12.743Z,19.20
2023-04-27T13:07:39.134Z,20.00
2023-04-27T13:10:06.447Z,20.59
2023-04-27T13:12:32.853Z,21.28
2023-04-27T13:14:59.228Z,21.75
2023-04-27T13:17:25.908Z,21.89
2023-04-27T13:19:52.773Z,20.95
2023-04-27T13:22:20.821Z,22.48
2023-04-27T13:24:47.383Z,23.48
2023-04-27T13:27:13.769Z,24.36
2023-04-27T13:29:40.480Z,23.92
2023-04-27T13:32:06.852Z,21.89
2023-04-27T13:34:33.290Z,21.97
2023-04-27T13:36:59.756Z,22.19
2023-04-27T13:39:26.309Z,22.57
2023-04-27T13:41:53.882Z,21.27
2023-04-27T13:44:20.302Z,20.99
2023-04-27T13:46:46.709Z,22.09
2023-04-27T13:49:13.410Z,22.79
2023-04-27T13:51:40.511Z,22.14
2023-04-27T13:54:06.926Z,21.59
2023-04-27T13:56:33.318Z,22.57
2023-04-27T13:59:00.216Z,22.31
2023-04-27T14:01:27.100Z,23.85
2023-04-27T14:03:53.742Z,23.61
2023-04-27T14:06:20.512Z,24.08
2023-04-27T14:08:47.041Z,24.83
2023-04-27T14:11:13.442Z,25.32
2023-04-27T14:13:39.823Z,26.02
2023-04-27T14:16:07.111Z,25.99
2023-04-27T14:18:33.646Z,22.65
2023-04-27T14:21:00.508Z,22.88
2023-04-27T14:23:26.930Z,22.54
2023-04-27T14:25:53.291Z,23.10
2023-04-27T14:28:19.687Z,22.66
2023-04-27T14:30:46.149Z,22.59
2023-04-27T14:33:12.587Z,22.89
2023-04-27T14:35:38.996Z,21.61
2023-04-27T14:38:05.474Z,20.95
2023-04-27T14:40:31.945Z,20.10
2023-04-27T14:42:58.868Z,20.02
2023-04-27T14:45:29.045Z,20.32
2023-04-27T14:48:00.787Z,21.09
2023-04-27T14:50:28.014Z,21.28
2023-04-27T14:52:58.337Z,20.81
2023-04-27T14:55:24.757Z,21.71
2023-04-27T14:57:51.400Z,20.12
2023-04-27T15:00:18.029Z,18.99
2023-04-27T15:02:44.552Z,19.86
2023-04-27T15:05:11.014Z,19.52
2023-04-27T15:07:37.438Z,19.22
2023-04-27T15:10:04.088Z,19.19
2023-04-27T15:12:30.665Z,19.05
2023-04-27T15:14:57.105Z,18.23
2023-04-27T15:17:24.005Z,18.00
2023-04-27T15:19:51.655Z,18.39
2023-04-27T15:22:18.033Z,17.19
2023-04-27T15:24:44.397Z,17.13
2023-04-27T15:27:10.999Z,17.42
2023-04-27T15:29:37.403Z,17.70
2023-04-27T15:32:04.050Z,16.69
2023-04-27T15:34:30.978Z,16.65
2023-04-27T15:36:57.694Z,16.71
2023-04-27T15:39:24.089Z,16.27
2023-04-27T15:41:50.469Z,16.86
2023-04-27T15:44:16.913Z,16.58
2023-04-27T15:46:43.334Z,16.13
2023-04-27T15:49:09.800Z,15.52
2023-04-27T15:51:36.332Z,15.66
2023-04-27T15:54:02.921Z,15.44
2023-04-27T15:56:30.850Z,15.30
2023-04-27T15:58:57.717Z,15.31
2023-04-27T16:01:24.143Z,14.86
2023-04-27T16:03:50.739Z,15.02
2023-04-27T16:06:17.255Z,14.96
2023-04-27T16:08:43.820Z,14.89
2023-04-27T16:11:10.252Z,14.84
2023-04-27T16:13:36.633Z,14.99
2023-04-27T16:16:04.247Z,15.37
2023-04-27T16:18:30.790Z,14.75
2023-04-27T16:20:58.066Z,15.01
2023-04-27T16:23:24.545Z,14.97
2023-04-27T16:25:50.947Z,14.65
2023-04-27T16:28:17.960Z,14.25
2023-04-27T16:30:44.407Z,14.55
2023-04-27T16:33:11.008Z,14.11
2023-04-27T16:35:37.497Z,13.97
2023-04-27T16:38:05.817Z,14.12
2023-04-27T16:40:32.897Z,14.41
2023-04-27T16:42:59.265Z,14.16
2023-04-27T16:45:25.681Z,14.12
2023-04-27T16:47:52.065Z,14.11
2023-04-27T16:50:18.480Z,14.33
2023-04-27T16:52:45.482Z,14.14
2023-04-27T16:55:12.014Z,14.05
2023-04-27T16:57:38.394Z,14.27
2023-04-27T17:00:09.701Z,14.25
2023-04-27T17:02:36.563Z,14.06
2023-04-27T17:05:03.181Z,13.97
2023-04-27T17:07:32.632Z,13.90
2023-04-27T17:09:59.619Z,13.93
2023-04-27T17:12:26.032Z,13.72
2023-04-27T17:14:52.456Z,13.78
2023-04-27T17:17:18.852Z,13.76
2023-04-27T17:19:45.253Z,13.04
2023-04-27T17:22:13.181Z,13.11
2023-04-27T17:24:39.896Z,12.88
2023-04-27T17:27:06.300Z,13.26
2023-04-27T17:29:32.697Z,13.16
2023-04-27T17:31:59.103Z,13.04
2023-04-27T17:34:25.498Z,13.36
2023-04-27T17:36:51.889Z,13.28
2023-04-27T17:39:18.372Z,13.30
2023-04-27T17:41:45.368Z,13.13
2023-04-27T17:44:12.598Z,13.28
2023-04-27T17:46:39.170Z,13.21
2023-04-27T17:49:05.659Z,13.31
2023-04-27T17:51:33.152Z,13.33
2023-04-27T17:53:59.621Z,13.58
2023-04-27T17:56:25.998Z,13.47
2023-04-27T17:58:52.403Z,13.67
2023-04-27T18:01:18.872Z,13.75
2023-04-27T18:03:45.435Z,13.53
2023-04-27T18:06:12.147Z,13.46
2023-04-27T18:08:38.573Z,13.47
2023-04-27T18:11:06.536Z,13.24
2023-04-27T18:13:32.909Z,13.32
2023-04-27T18:15:59.493Z,13.27
2023-04-27T18:18:26.770Z,12.97
2023-04-27T18:20:53.179Z,13.23
2023-04-27T18:23:20.157Z,13.35
2023-04-27T18:25:46.562Z,13.30
2023-04-27T18:28:12.950Z,13.21
2023-04-27T18:30:39.366Z,12.92
2023-04-27T18:33:06.103Z,13.05
2023-04-27T18:35:32.501Z,13.04
2023-04-27T18:37:58.869Z,13.09
2023-04-27T18:40:25.997Z,12.95
2023-04-27T18:42:53.109Z,12.84
2023-04-27T18:45:19.800Z,12.66
2023-04-27T18:47:46.241Z,12.79
2023-04-27T18:50:13.218Z,12.76
2023-04-27T18:52:39.615Z,12.69
2023-04-27T18:55:06.854Z,12.39
2023-04-27T18:57:33.644Z,12.68
2023-04-27T19:00:00.245Z,12.52
2023-04-27T19:02:26.755Z,12.46
2023-04-27T19:05:10.411Z,12.55
2023-04-27T19:07:39.349Z,12.62
2023-04-27T19:10:06.637Z,12.40
2023-04-27T19:12:33.119Z,12.36
2023-04-27T19:14:59.550Z,12.43
2023-04-27T19:17:26.109Z,12.32
2023-04-27T19:19:52.639Z,12.41
2023-04-27T19:22:19.136Z,12.38
2023-04-27T19:24:45.661Z,11.98
2023-04-27T19:27:12.678Z,11.80
2023-04-27T19:29:52.957Z,12.11
2023-04-27T19:32:20.225Z,11.67
2023-04-27T19:34:47.356Z,11.80
2023-04-27T19:37:14.103Z,11.97
2023-04-27T19:39:40.642Z,12.12
2023-04-27T19:42:07.027Z,12.24
2023-04-27T19:44:33.418Z,12.24
2023-04-27T19:46:59.829Z,12.07
2023-04-27T19:49:26.194Z,11.94
2023-04-27T19:51:52.662Z,11.97
2023-04-27T19:54:19.072Z,11.87
2023-04-27T19:56:45.445Z,11.42
2023-04-27T19:59:12.153Z,11.49
2023-04-27T20:01:38.681Z,11.30
2023-04-27T20:04:05.271Z,11.44
2023-04-27T20:06:33.177Z,11.69
2023-04-27T20:08:59.689Z,11.34
2023-04-27T20:11:26.101Z,11.29
2023-04-27T20:13:52.476Z,11.35
2023-04-27T20:16:19.857Z,11.32
2023-04-27T20:18:46.502Z,11.48
2023-04-27T20:21:13.054Z,11.52
2023-04-27T20:23:39.479Z,11.61
2023-04-27T20:26:05.868Z,11.66
2023-04-27T20:28:32.436Z,11.69
2023-04-27T20:30:58.931Z,11.58
2023-04-27T20:33:25.315Z,11.64
2023-04-27T20:35:55.553Z,11.63
2023-04-27T20:38:23.468Z,11.46
2023-04-27T20:40:52.557Z,11.48
2023-04-27T20:43:19.409Z,11.03
2023-04-27T20:45:45.890Z,10.91
2023-04-27T20:48:13.272Z,10.87
2023-04-27T20:50:39.754Z,10.88
2023-04-27T20:53:06.202Z,11.20
2023-04-27T20:55:33.397Z,11.10
2023-04-27T20:57:59.761Z,11.29
2023-04-27T21:00:26.277Z,11.34
2023-04-27T21:02:52.809Z,11.34
2023-04-27T21:05:19.367Z,11.21
2023-04-27T21:07:45.906Z,11.12
2023-04-27T21:10:12.750Z,10.57
2023-04-27T21:12:39.199Z,10.91
2023-04-27T21:15:06.202Z,10.73
2023-04-27T21:17:32.619Z,10.87
2023-04-27T21:19:59.067Z,10.89
2023-04-27T21:22:25.527Z,11.09
2023-04-27T21:24:52.551Z,10.90
2023-04-27T21:27:18.954Z,10.83
2023-04-27T21:29:45.317Z,10.94
2023-04-27T21:32:11.717Z,10.83
2023-04-27T21:34:38.109Z,10.90
2023-04-27T21:37:04.507Z,10.95
2023-04-27T21:39:30.944Z,10.91
2023-04-27T21:41:57.324Z,10.74
2023-04-27T21:44:23.724Z,10.73
2023-04-27T21:46:50.194Z,10.89
2023-04-27T21:49:16.684Z,10.69
2023-04-27T21:51:43.106Z,10.73
2023-04-27T21:54:09.506Z,10.71
2023-04-27T21:56:37.526Z,10.78
2023-04-27T21:59:03.917Z,10.97
2023-04-27T22:01:30.797Z,10.92
2023-04-27T22:04:35.883Z,10.95
2023-04-27T22:07:02.551Z,10.92
2023-04-27T22:09:28.903Z,10.93
2023-04-27T22:11:55.312Z,10.98
2023-04-27T22:14:21.691Z,11.03
2023-04-27T22:16:48.935Z,10.94
2023-04-27T22:19:15.344Z,10.96
2023-04-27T22:21:41.706Z,10.86
2023-04-27T22:24:08.866Z,10.90
2023-04-27T22:26:35.413Z,10.84
2023-04-27T22:29:01.766Z,10.73
2023-04-27T22:31:28.244Z,10.67
2023-04-27T22:33:54.653Z,10.65
2023-04-27T22:36:21.013Z,10.64
2023-04-27T22:38:47.377Z,10.49
2023-04-27T22:41:13.907Z,10.68
2023-04-27T22:43:40.315Z,10.68
2023-04-27T22:46:06.677Z,10.78
2023-04-27T22:48:33.482Z,10.64
2023-04-27T22:50:59.857Z,10.60
2023-04-27T22:53:26.700Z,10.50
2023-04-27T22:55:53.078Z,10.66
2023-04-27T22:58:19.458Z,10.73
2023-04-27T23:00:46.060Z,10.60
2023-04-27T23:03:12.714Z,10.51
2023-04-27T23:05:39.304Z,10.53
2023-04-27T23:08:06.630Z,10.37
2023-04-27T23:10:34.704Z,10.33
2023-04-27T23:13:01.959Z,10.40
2023-04-27T23:15:28.403Z,10.41
2023-04-27T23:17:54.776Z,10.49
2023-04-27T23:20:28.070Z,10.61
2023-04-27T23:22:55.592Z,10.41
2023-04-27T23:25:22.140Z,10.31
2023-04-27T23:27:51.213Z,10.30
2023-04-27T23:30:18.437Z,10.37
2023-04-27T23:32:44.855Z,10.47
2023-04-27T23:35:11.443Z,10.37
2023-04-27T23:37:37.954Z,10.13
2023-04-27T23:40:05.029Z,10.27
2023-04-27T23:42:31.589Z,10.25
2023-04-27T23:44:58.301Z,10.05
2023-04-27T23:47:24.762Z,10.25
2023-04-27T23:49:51.158Z,10.26
2023-04-27T23:52:17.564Z,10.22
2023-04-27T23:54:43.925Z,10.27
2023-04-27T23:57:10.379Z,10.12
2023-04-27T23:59:37.170Z,10.23
